Other Surface Observations
Issued by NWS Great Falls, MT

Home | Current Version | Previous Version | Text Only | Print | Product List | Glossary On
Versions: 1 2 3 4 5 6 7 8 9 10 11 12 13 14 15 16 17 18 19 20 21 22 23 24 25 26 27 28 29 30 31 32 33 34 35 36 37 38 39 40 41 42 43 44 45 46 47 48 49 50
000
SXUS55 KTFX 181551
OSOTFX
AREA AWOS OBSERVATIONS
NATIONAL WEATHER SERVICE GREAT FALLS MT
0950 AM MDT SAT APR 18 2015

METAR KPWD 181545Z AUTO 21007KT 10SM 14/00 A2991 RMK PLENTYWOOD
METAR KPO1 181545Z AUTO 25007KT 9SM 14/02 A2993 RMK POPLAR
METAR K1S3 181545Z AUTO 23005KT 10SM 11/02 A2996 RMK FORSYTH
METAR K6S0 181545Z AUTO 24012G20KT 10SM 13/M02 A3006 RMK BIG TIMBER
METAR K79S 181545Z AUTO 33013G18KT 10SM 07/M01 A3021 RMK FORT BENTON
METAR K38S 181545Z AUTO 00000KT 10SM 09/00 A3019 RMK DEER LODGE
METAR K3U3 181545Z AUTO 23007KT 10SM 11/M02 A3015 RMK ANACONDA
METAR K6S5 181545Z AUTO 17006KT 10SM 11/01 A3016 RMK HAMILTON
METAR KS59 181545Z AUTO 00000KT 10SM 09/02 A3021 RMK LIBBY
METAR K88M 181545Z AUTO 00000KT 10SM 11/02 A3023 RMK EUREKA



USA.gov is the U.S. government's official web portal to all federal, state and local government web resources and services.